Time;durP1;ratioP1;P1;durP2;ratioP2;P2;SDS_P1;SDS_P2;PMS_P1;PMS_P2;Temp;Humidity;BMP_temperature;BMP_pressure;BME280_temperature;BME280_humidity;BME280_pressure;Samples;Min_cycle;Max_cycle;Signal;HPM_P1;HPM_P2
2021/12/21 00:02:14;0.00;0.00;0.62;0.00;0.00;0.62;3.70;2.53;;;21.70;28.80;;;;;;2221450;62;20398;-60
2021/12/21 00:04:59;0.00;0.00;0.62;0.00;0.00;0.62;3.93;2.70;;;21.60;28.50;;;;;;2222312;62;20838;-60
2021/12/21 00:07:44;0.00;0.00;0.62;0.00;0.00;0.62;3.60;2.83;;;21.60;28.40;;;;;;2222633;62;20372;-55
2021/12/21 00:10:33;0.00;0.00;0.62;0.00;0.00;0.62;3.80;3.17;;;21.60;28.30;;;;;;2221912;62;20681;-56
2021/12/21 00:16:47;0.00;0.00;0.62;0.00;0.00;0.62;5.43;3.47;;;21.60;28.10;;;;;;2239150;61;20385;-59
2021/12/21 00:22:54;0.00;0.00;0.62;0.00;0.00;0.62;4.53;3.90;;;21.50;27.70;;;;;;2246169;61;20473;-58
2021/12/21 00:25:28;0.00;0.00;0.62;0.00;0.00;0.62;4.20;3.67;;;21.50;27.70;;;;;;2245977;61;20397;-58
2021/12/21 00:28:13;0.00;0.00;0.62;0.00;0.00;0.62;5.03;4.27;;;21.40;27.60;;;;;;2246307;61;20369;-58
2021/12/21 00:30:57;0.00;0.00;0.62;0.00;0.00;0.62;4.80;3.60;;;21.40;27.60;;;;;;2244985;61;20401;-59
2021/12/21 00:33:45;0.00;0.00;0.62;0.00;0.00;0.62;5.70;4.67;;;21.40;27.60;;;;;;2246256;61;20358;-60
2021/12/21 00:36:32;0.00;0.00;0.62;0.00;0.00;0.62;4.20;3.87;;;21.30;27.50;;;;;;2245865;61;20377;-57
2021/12/21 00:39:16;0.00;0.00;0.62;0.00;0.00;0.62;4.33;3.33;;;21.30;27.50;;;;;;2244527;61;20369;-55
2021/12/21 00:42:01;0.00;0.00;0.62;0.00;0.00;0.62;4.93;4.37;;;21.30;27.30;;;;;;2246246;61;20389;-57
2021/12/21 00:44:46;0.00;0.00;0.62;0.00;0.00;0.62;5.70;4.63;;;21.20;27.20;;;;;;2245775;61;20438;-61
2021/12/21 00:47:33;0.00;0.00;0.62;0.00;0.00;0.62;4.53;3.67;;;21.20;27.10;;;;;;2245519;61;20388;-58
2021/12/21 00:50:20;0.00;0.00;0.62;0.00;0.00;0.62;6.40;4.03;;;21.20;27.10;;;;;;2246266;61;20429;-56
2021/12/21 00:53:07;0.00;0.00;0.62;0.00;0.00;0.62;5.40;3.97;;;21.10;27.00;;;;;;2245091;61;20361;-56
2021/12/21 00:55:52;0.00;0.00;0.62;0.00;0.00;0.62;4.67;4.17;;;21.10;27.00;;;;;;2245752;61;20491;-60
2021/12/21 00:58:36;0.00;0.00;0.62;0.00;0.00;0.62;4.97;4.13;;;21.00;26.90;;;;;;2245850;61;20405;-61
2021/12/21 01:01:21;0.00;0.00;0.62;0.00;0.00;0.62;4.60;4.00;;;21.00;26.90;;;;;;2244960;61;20769;-57
2021/12/21 01:04:09;0.00;0.00;0.62;0.00;0.00;0.62;4.03;3.40;;;21.00;26.90;;;;;;2246274;61;20477;-55
2021/12/21 01:07:14;0.00;0.00;0.62;0.00;0.00;0.62;4.23;3.73;;;21.00;26.80;;;;;;2245569;61;20750;-54
2021/12/21 01:11:08;0.00;0.00;0.62;0.00;0.00;0.62;5.33;4.03;;;20.90;26.70;;;;;;2245591;61;20409;-59
2021/12/21 01:13:32;0.00;0.00;0.62;0.00;0.00;0.62;5.53;4.03;;;20.80;26.60;;;;;;2245861;61;20381;-60
2021/12/21 01:16:26;0.00;0.00;0.62;0.00;0.00;0.62;3.97;3.57;;;20.80;26.60;;;;;;2248740;61;20669;-54
2021/12/21 01:19:17;0.00;0.00;0.62;0.00;0.00;0.62;4.90;4.03;;;20.80;26.60;;;;;;2254054;61;20630;-58
2021/12/21 01:22:14;0.00;0.00;0.62;0.00;0.00;0.62;5.30;4.63;;;20.70;26.50;;;;;;2253778;61;20367;-54
2021/12/21 01:28:07;0.00;0.00;0.62;0.00;0.00;0.62;5.63;4.43;;;20.60;26.40;;;;;;2253879;61;20360;-57
2021/12/21 01:34:13;0.00;0.00;0.62;0.00;0.00;0.62;4.67;4.20;;;20.60;26.40;;;;;;2253907;61;20407;-55
2021/12/21 01:37:48;0.00;0.00;0.62;0.00;0.00;0.62;4.80;4.30;;;20.50;26.30;;;;;;2253383;61;20391;-57
2021/12/21 01:43:37;0.00;0.00;0.62;0.00;0.00;0.62;5.33;4.80;;;20.40;26.30;;;;;;2253983;61;20414;-55
2021/12/21 01:49:44;0.00;0.00;0.62;0.00;0.00;0.62;4.17;3.80;;;20.30;26.20;;;;;;2253971;61;20731;-56
2021/12/21 01:52:29;0.00;0.00;0.62;0.00;0.00;0.62;6.27;4.13;;;20.30;26.20;;;;;;2252854;61;20748;-55
2021/12/21 01:55:15;0.00;0.00;0.62;0.00;0.00;0.62;5.87;4.60;;;20.20;26.10;;;;;;2253788;61;20408;-58
2021/12/21 01:58:00;0.00;0.00;0.62;0.00;0.00;0.62;4.90;4.10;;;20.20;26.10;;;;;;2253972;61;20368;-54
2021/12/21 02:00:45;0.00;0.00;0.62;0.00;0.00;0.62;5.50;4.40;;;20.10;26.00;;;;;;2252217;61;20368;-56
2021/12/21 02:03:35;0.00;0.00;0.62;0.00;0.00;0.62;5.37;4.40;;;20.10;26.00;;;;;;2253905;61;20759;-55
2021/12/21 02:06:22;0.00;0.00;0.62;0.00;0.00;0.62;4.43;4.03;;;20.10;26.00;;;;;;2253490;61;20423;-56
2021/12/21 02:09:06;0.00;0.00;0.62;0.00;0.00;0.62;4.80;4.27;;;20.10;26.00;;;;;;2253679;61;20399;-61
2021/12/21 02:11:52;0.00;0.00;0.62;0.00;0.00;0.62;5.40;4.57;;;20.00;25.90;;;;;;2253911;61;20705;-56
2021/12/21 02:14:39;0.00;0.00;0.62;0.00;0.00;0.62;4.87;4.33;;;20.00;25.90;;;;;;2252661;61;20411;-60
2021/12/21 02:23:22;0.00;0.00;0.62;0.00;0.00;0.62;5.50;4.03;;;19.90;25.90;;;;;;2256925;61;20790;-58
2021/12/21 02:26:22;0.00;0.00;0.62;0.00;0.00;0.62;5.27;4.30;;;19.80;25.80;;;;;;2257735;61;20401;-57
2021/12/21 02:29:14;0.00;0.00;0.62;0.00;0.00;0.62;5.50;4.50;;;19.80;25.80;;;;;;2256777;61;20424;-54
2021/12/21 02:31:59;0.00;0.00;0.62;0.00;0.00;0.62;7.30;4.03;;;19.80;25.80;;;;;;2257983;61;20363;-57
2021/12/21 02:34:44;0.00;0.00;0.62;0.00;0.00;0.62;4.80;4.00;;;19.70;25.70;;;;;;2257915;61;20355;-58
2021/12/21 02:37:31;0.00;0.00;0.62;0.00;0.00;0.62;5.47;4.97;;;19.70;25.80;;;;;;2256566;61;20577;-58
2021/12/21 02:40:16;0.00;0.00;0.62;0.00;0.00;0.62;5.20;3.83;;;19.70;25.70;;;;;;2257812;61;20794;-53
2021/12/21 02:43:01;0.00;0.00;0.62;0.00;0.00;0.62;5.93;4.63;;;19.60;25.70;;;;;;2257507;61;20666;-57
2021/12/21 02:45:46;0.00;0.00;0.62;0.00;0.00;0.62;5.33;4.10;;;19.60;25.60;;;;;;2256415;61;20402;-58
2021/12/21 02:48:31;0.00;0.00;0.62;0.00;0.00;0.62;5.10;3.60;;;19.60;25.60;;;;;;2257812;61;20394;-59
2021/12/21 02:51:16;0.00;0.00;0.62;0.00;0.00;0.62;5.10;4.27;;;19.50;25.60;;;;;;2256600;61;20418;-59
2021/12/21 02:54:02;0.00;0.00;0.62;0.00;0.00;0.62;4.30;3.80;;;19.50;25.60;;;;;;2257593;61;20357;-57
2021/12/21 02:56:47;0.00;0.00;0.62;0.00;0.00;0.62;4.80;4.30;;;19.50;25.60;;;;;;2257677;61;20402;-60
2021/12/21 02:59:32;0.00;0.00;0.62;0.00;0.00;0.62;5.43;4.33;;;19.50;25.60;;;;;;2253117;61;20410;-54
2021/12/21 03:02:17;0.00;0.00;0.62;0.00;0.00;0.62;4.77;3.87;;;19.50;25.60;;;;;;2257736;61;20847;-57
2021/12/21 03:05:03;0.00;0.00;0.62;0.00;0.00;0.62;5.77;4.13;;;19.40;25.50;;;;;;2254545;61;20374;-58
2021/12/21 03:10:48;0.00;0.00;0.62;0.00;0.00;0.62;5.30;4.00;;;19.40;25.50;;;;;;2257690;61;20417;-57
2021/12/21 03:16:38;0.00;0.00;0.62;0.00;0.00;0.62;5.03;4.07;;;19.30;25.50;;;;;;2255551;61;20415;-58
2021/12/21 03:19:23;0.00;0.00;0.62;0.00;0.00;0.62;5.57;4.33;;;19.30;25.50;;;;;;2252129;61;20368;-56
2021/12/21 03:22:10;0.00;0.00;0.62;0.00;0.00;0.62;4.20;3.80;;;19.20;25.40;;;;;;2248762;61;20379;-59
2021/12/21 03:24:54;0.00;0.00;0.62;0.00;0.00;0.62;6.40;4.40;;;19.20;25.40;;;;;;2252707;61;20369;-54
2021/12/21 03:27:41;0.00;0.00;0.62;0.00;0.00;0.62;4.47;4.07;;;19.20;25.40;;;;;;2250009;61;20444;-59
2021/12/21 03:30:27;0.00;0.00;0.62;0.00;0.00;0.62;4.90;4.40;;;19.20;25.50;;;;;;2252308;61;20387;-56
2021/12/21 03:33:12;0.00;0.00;0.62;0.00;0.00;0.62;5.00;4.13;;;19.10;25.40;;;;;;2250483;61;20415;-57
2021/12/21 03:35:57;0.00;0.00;0.62;0.00;0.00;0.62;4.53;3.87;;;19.10;25.40;;;;;;2249005;61;20388;-55
2021/12/21 03:38:47;0.00;0.00;0.62;0.00;0.00;0.62;4.50;3.80;;;19.10;25.40;;;;;;2250446;61;20426;-61
2021/12/21 03:41:32;0.00;0.00;0.62;0.00;0.00;0.62;3.83;3.43;;;19.00;25.30;;;;;;2250477;61;20686;-61
2021/12/21 03:44:19;0.00;0.00;0.62;0.00;0.00;0.62;4.33;3.83;;;19.10;25.40;;;;;;2249103;61;20387;-57
2021/12/21 03:47:05;0.00;0.00;0.62;0.00;0.00;0.62;5.70;4.03;;;19.00;25.40;;;;;;2250603;61;20384;-61
2021/12/21 03:52:37;0.00;0.00;0.62;0.00;0.00;0.62;4.47;4.00;;;18.90;25.30;;;;;;2249962;61;20385;-58
2021/12/21 03:55:22;0.00;0.00;0.62;0.00;0.00;0.62;4.93;3.90;;;18.90;25.30;;;;;;2250351;61;20456;-54
2021/12/21 03:58:06;0.00;0.00;0.62;0.00;0.00;0.62;4.00;3.60;;;18.90;25.30;;;;;;2249210;61;20364;-55
2021/12/21 04:00:52;0.00;0.00;0.62;0.00;0.00;0.62;5.10;4.37;;;18.90;25.30;;;;;;2250354;61;20357;-55
2021/12/21 04:03:37;0.00;0.00;0.62;0.00;0.00;0.62;4.63;3.23;;;18.90;25.30;;;;;;2250247;61;20547;-58
2021/12/21 04:06:21;0.00;0.00;0.62;0.00;0.00;0.62;5.23;3.40;;;18.80;25.30;;;;;;2251171;61;20388;-54
2021/12/21 04:09:07;0.00;0.00;0.62;0.00;0.00;0.62;5.67;4.53;;;18.80;25.30;;;;;;2250438;61;20634;-58
2021/12/21 04:11:52;0.00;0.00;0.62;0.00;0.00;0.62;4.80;3.90;;;18.80;25.30;;;;;;2252186;61;20795;-52
2021/12/21 04:14:37;0.00;0.00;0.62;0.00;0.00;0.62;6.13;4.53;;;18.70;25.20;;;;;;2249547;61;20984;-57
2021/12/21 04:17:24;0.00;0.00;0.62;0.00;0.00;0.62;5.30;3.83;;;18.70;25.20;;;;;;2250257;61;20376;-58
2021/12/21 04:20:10;0.00;0.00;0.62;0.00;0.00;0.62;3.30;3.00;;;18.70;25.20;;;;;;2251480;61;20516;-53
2021/12/21 04:22:55;0.00;0.00;0.62;0.00;0.00;0.62;4.00;3.17;;;18.60;25.20;;;;;;2250446;61;20389;-55
2021/12/21 04:25:40;0.00;0.00;0.62;0.00;0.00;0.62;4.13;3.73;;;18.70;25.20;;;;;;2252375;61;20457;-57
2021/12/21 04:28:24;0.00;0.00;0.62;0.00;0.00;0.62;4.43;3.20;;;18.60;25.20;;;;;;2248864;61;20369;-62
2021/12/21 04:31:10;0.00;0.00;0.62;0.00;0.00;0.62;6.03;4.20;;;18.60;25.20;;;;;;2250172;61;20571;-59
2021/12/21 04:33:56;0.00;0.00;0.62;0.00;0.00;0.62;4.13;3.10;;;18.60;25.20;;;;;;2249933;61;20357;-59
2021/12/21 04:36:42;0.00;0.00;0.62;0.00;0.00;0.62;6.83;4.03;;;18.60;25.20;;;;;;2251727;61;20831;-54
2021/12/21 04:39:49;0.00;0.00;0.62;0.00;0.00;0.62;5.07;3.83;;;18.50;25.10;;;;;;2250070;61;20364;-58
2021/12/21 04:42:33;0.00;0.00;0.62;0.00;0.00;0.62;3.90;3.10;;;18.50;25.10;;;;;;2249102;61;20380;-58
2021/12/21 04:45:18;0.00;0.00;0.62;0.00;0.00;0.62;4.80;3.87;;;18.50;25.10;;;;;;2250150;61;20375;-57
2021/12/21 04:48:03;0.00;0.00;0.62;0.00;0.00;0.62;3.93;3.53;;;18.50;25.10;;;;;;2250121;61;20582;-56
2021/12/21 04:50:49;0.00;0.00;0.62;0.00;0.00;0.62;3.70;3.30;;;18.40;25.10;;;;;;2248950;61;20361;-58
2021/12/21 04:53:34;0.00;0.00;0.62;0.00;0.00;0.62;4.60;3.50;;;18.40;25.10;;;;;;2250290;61;20364;-58
2021/12/21 04:56:18;0.00;0.00;0.62;0.00;0.00;0.62;5.67;4.37;;;18.40;25.10;;;;;;2249895;61;20489;-57
2021/12/21 04:59:03;0.00;0.00;0.62;0.00;0.00;0.62;4.07;3.67;;;18.40;25.10;;;;;;2249399;61;20389;-57
2021/12/21 05:01:48;0.00;0.00;0.62;0.00;0.00;0.62;4.53;3.73;;;18.30;25.00;;;;;;2250210;61;20444;-57
2021/12/21 05:04:33;0.00;0.00;0.62;0.00;0.00;0.62;6.03;4.30;;;18.30;25.00;;;;;;2249171;61;20368;-58
2021/12/21 05:07:23;0.00;0.00;0.62;0.00;0.00;0.62;4.60;3.90;;;18.30;25.10;;;;;;2249859;61;20596;-58
2021/12/21 05:10:11;0.00;0.00;0.62;0.00;0.00;0.62;5.33;4.33;;;18.30;25.10;;;;;;2250077;61;20744;-55
2021/12/21 05:12:55;0.00;0.00;0.62;0.00;0.00;0.62;5.30;3.90;;;18.20;25.00;;;;;;2248844;61;20587;-56
2021/12/21 05:15:40;0.00;0.00;0.62;0.00;0.00;0.62;4.70;3.67;;;18.20;25.00;;;;;;2249906;61;20424;-60
2021/12/21 05:18:26;0.00;0.00;0.62;0.00;0.00;0.62;5.97;3.80;;;18.20;25.00;;;;;;2249478;61;20420;-57
2021/12/21 05:21:10;0.00;0.00;0.62;0.00;0.00;0.62;4.77;3.93;;;18.20;25.10;;;;;;2249394;61;20424;-58
2021/12/21 05:23:56;0.00;0.00;0.62;0.00;0.00;0.62;4.70;3.80;;;18.20;25.20;;;;;;2250107;61;20597;-55
2021/12/21 05:26:41;0.00;0.00;0.62;0.00;0.00;0.62;4.17;3.23;;;18.20;25.30;;;;;;2251256;61;20384;-53
2021/12/21 05:29:26;0.00;0.00;0.62;0.00;0.00;0.62;2.97;2.60;;;18.20;25.30;;;;;;2249724;61;20720;-60
2021/12/21 05:32:11;0.00;0.00;0.62;0.00;0.00;0.62;3.63;3.30;;;18.20;25.30;;;;;;2250158;61;20400;-58
2021/12/21 05:34:56;0.00;0.00;0.62;0.00;0.00;0.62;3.93;2.83;;;18.20;25.30;;;;;;2248637;61;20416;-55
2021/12/21 05:37:41;0.00;0.00;0.62;0.00;0.00;0.62;3.90;2.90;;;18.20;25.30;;;;;;2249931;61;20360;-58
2021/12/21 05:40:37;0.00;0.00;0.62;0.00;0.00;0.62;4.60;2.90;;;18.20;25.30;;;;;;2250184;61;20408;-55
2021/12/21 05:43:22;0.00;0.00;0.62;0.00;0.00;0.62;3.67;2.87;;;18.20;25.30;;;;;;2249072;61;20416;-57
2021/12/21 05:46:07;0.00;0.00;0.62;0.00;0.00;0.62;3.20;2.80;;;18.30;25.40;;;;;;2249843;61;20380;-59
2021/12/21 05:48:52;0.00;0.00;0.62;0.00;0.00;0.62;4.20;2.80;;;18.30;25.40;;;;;;2248846;61;20366;-58
2021/12/21 05:51:36;0.00;0.00;0.62;0.00;0.00;0.62;3.93;2.90;;;18.30;25.40;;;;;;2249705;61;20408;-60
2021/12/21 05:54:21;0.00;0.00;0.62;0.00;0.00;0.62;3.20;2.67;;;18.30;25.40;;;;;;2250084;61;20356;-57
2021/12/21 05:57:07;0.00;0.00;0.62;0.00;0.00;0.62;3.70;2.40;;;18.30;25.40;;;;;;2248614;61;20439;-53
2021/12/21 05:59:52;0.00;0.00;0.62;0.00;0.00;0.62;3.30;2.50;;;18.30;25.70;;;;;;2249945;61;20408;-55
2021/12/21 06:02:37;0.00;0.00;0.62;0.00;0.00;0.62;4.03;2.87;;;18.30;25.80;;;;;;2250146;61;20624;-51
2021/12/21 06:05:22;0.00;0.00;0.62;0.00;0.00;0.62;3.07;2.40;;;18.30;25.80;;;;;;2249036;61;20436;-54
2021/12/21 06:08:06;0.00;0.00;0.62;0.00;0.00;0.62;3.10;2.43;;;18.40;25.90;;;;;;2250016;61;20737;-58
2021/12/21 06:10:53;0.00;0.00;0.62;0.00;0.00;0.62;8.47;2.37;;;18.40;25.90;;;;;;2251313;61;20364;-62
2021/12/21 06:22:45;0.00;0.00;0.62;0.00;0.00;0.62;2.90;2.20;;;18.60;26.10;;;;;;2249952;61;20445;-54
2021/12/21 06:25:37;0.00;0.00;0.62;0.00;0.00;0.62;3.30;2.30;;;18.60;26.10;;;;;;2249417;61;20400;-58
2021/12/21 06:28:22;0.00;0.00;0.62;0.00;0.00;0.62;2.77;1.97;;;18.60;26.20;;;;;;2249653;61;20368;-61
2021/12/21 06:31:09;0.00;0.00;0.62;0.00;0.00;0.62;2.83;2.40;;;18.60;26.10;;;;;;2249973;61;20404;-54
2021/12/21 06:33:55;0.00;0.00;0.62;0.00;0.00;0.62;4.70;2.03;;;18.70;26.20;;;;;;2248312;61;20369;-57
2021/12/21 06:36:40;0.00;0.00;0.62;0.00;0.00;0.62;2.37;1.93;;;18.70;26.20;;;;;;2249945;61;20385;-54
2021/12/21 06:39:27;0.00;0.00;0.62;0.00;0.00;0.62;4.20;2.30;;;18.70;26.10;;;;;;2249862;61;20408;-57
2021/12/21 06:42:14;0.00;0.00;0.62;0.00;0.00;0.62;3.53;2.47;;;18.70;26.10;;;;;;2248773;61;20359;-60
2021/12/21 06:45:00;0.00;0.00;0.62;0.00;0.00;0.62;2.33;2.00;;;18.80;26.10;;;;;;2249865;61;20369;-57
2021/12/21 06:53:53;0.00;0.00;0.62;0.00;0.00;0.62;2.50;1.70;;;18.80;26.00;;;;;;2249844;61;20657;-55
2021/12/21 06:56:37;0.00;0.00;0.62;0.00;0.00;0.62;2.27;1.87;;;18.90;26.00;;;;;;2248202;61;20463;-57
2021/12/21 06:59:22;0.00;0.00;0.62;0.00;0.00;0.62;3.30;2.07;;;18.90;26.00;;;;;;2249936;61;20473;-57
2021/12/21 07:02:08;0.00;0.00;0.62;0.00;0.00;0.62;3.83;2.10;;;18.90;26.00;;;;;;2249455;61;20769;-60
2021/12/21 07:04:55;0.00;0.00;0.62;0.00;0.00;0.62;2.67;1.80;;;18.90;26.00;;;;;;2248931;61;20373;-59
2021/12/21 07:07:41;0.00;0.00;0.62;0.00;0.00;0.62;3.37;1.90;;;18.90;26.00;;;;;;2249856;61;20416;-59
2021/12/21 07:10:27;0.00;0.00;0.62;0.00;0.00;0.62;2.17;1.70;;;18.90;25.90;;;;;;2248583;61;20368;-56
2021/12/21 07:19:19;0.00;0.00;0.62;0.00;0.00;0.62;1.80;1.30;;;19.00;25.90;;;;;;2248976;61;20408;-57
2021/12/21 07:22:06;0.00;0.00;0.62;0.00;0.00;0.62;2.67;2.00;;;19.00;25.90;;;;;;2249860;61;20481;-59
2021/12/21 07:24:51;0.00;0.00;0.62;0.00;0.00;0.62;2.40;1.43;;;19.00;25.90;;;;;;2248695;61;20376;-57
2021/12/21 07:27:35;0.00;0.00;0.62;0.00;0.00;0.62;2.80;1.70;;;19.00;25.90;;;;;;2249713;61;20419;-57
2021/12/21 07:30:20;0.00;0.00;0.62;0.00;0.00;0.62;2.03;1.73;;;19.10;26.00;;;;;;2249462;61;20590;-58
2021/12/21 07:33:05;0.00;0.00;0.62;0.00;0.00;0.62;2.40;1.90;;;19.00;25.90;;;;;;2248599;61;20397;-60
2021/12/21 07:35:50;0.00;0.00;0.62;0.00;0.00;0.62;3.43;1.57;;;19.10;26.00;;;;;;2249658;61;20384;-53
2021/12/21 07:38:36;0.00;0.00;0.62;0.00;0.00;0.62;1.90;1.30;;;19.10;26.00;;;;;;2249597;61;20365;-59
2021/12/21 07:41:20;0.00;0.00;0.62;0.00;0.00;0.62;2.10;1.63;;;19.10;26.00;;;;;;2248719;61;20697;-60
2021/12/21 07:44:05;0.00;0.00;0.62;0.00;0.00;0.62;2.80;1.70;;;19.10;26.00;;;;;;2249576;61;20444;-59
2021/12/21 07:46:50;0.00;0.00;0.62;0.00;0.00;0.62;2.00;1.50;;;19.10;26.00;;;;;;2249196;61;20379;-57
2021/12/21 07:49:35;0.00;0.00;0.62;0.00;0.00;0.62;2.50;1.70;;;19.10;26.00;;;;;;2249580;61;20396;-59
2021/12/21 07:52:19;0.00;0.00;0.62;0.00;0.00;0.62;2.30;1.50;;;19.10;26.00;;;;;;2249546;61;20392;-55
2021/12/21 07:55:06;0.00;0.00;0.62;0.00;0.00;0.62;1.70;1.20;;;19.10;26.00;;;;;;2248437;61;20416;-55
2021/12/21 07:57:51;0.00;0.00;0.62;0.00;0.00;0.62;2.30;1.67;;;19.20;26.00;;;;;;2249689;61;20364;-58
2021/12/21 08:00:37;0.00;0.00;0.62;0.00;0.00;0.62;2.37;1.70;;;19.20;26.00;;;;;;2249645;61;20369;-56
2021/12/21 08:03:22;0.00;0.00;0.62;0.00;0.00;0.62;2.03;1.40;;;19.20;26.00;;;;;;2248475;61;20436;-56
2021/12/21 08:06:11;0.00;0.00;0.62;0.00;0.00;0.62;2.70;1.87;;;19.20;26.00;;;;;;2249393;61;20388;-59
2021/12/21 08:08:56;0.00;0.00;0.62;0.00;0.00;0.62;2.23;1.60;;;19.20;26.00;;;;;;2249954;61;20453;-53
2021/12/21 08:14:49;0.00;0.00;0.62;0.00;0.00;0.62;1.73;1.40;;;19.20;26.00;;;;;;2250311;61;20364;-60
2021/12/21 08:17:34;0.00;0.00;0.62;0.00;0.00;0.62;1.80;1.43;;;19.20;26.00;;;;;;2249064;61;20445;-55
2021/12/21 08:20:19;0.00;0.00;0.62;0.00;0.00;0.62;2.13;1.60;;;19.20;26.00;;;;;;2250317;61;20353;-57
2021/12/21 08:23:05;0.00;0.00;0.62;0.00;0.00;0.62;1.70;1.20;;;19.20;26.00;;;;;;2250463;61;20381;-57
2021/12/21 08:25:51;0.00;0.00;0.62;0.00;0.00;0.62;2.10;1.60;;;19.20;26.00;;;;;;2249126;61;20493;-57
2021/12/21 08:28:37;0.00;0.00;0.62;0.00;0.00;0.62;2.07;1.23;;;19.20;26.00;;;;;;2250424;61;20753;-53
2021/12/21 08:31:21;0.00;0.00;0.62;0.00;0.00;0.62;1.77;1.20;;;19.20;26.00;;;;;;2249746;61;20485;-57
2021/12/21 08:34:05;0.00;0.00;0.62;0.00;0.00;0.62;2.00;1.40;;;19.20;26.00;;;;;;2252299;61;20365;-61
2021/12/21 08:36:50;0.00;0.00;0.62;0.00;0.00;0.62;1.97;1.30;;;19.20;26.00;;;;;;2252568;61;20436;-58
2021/12/21 08:39:39;0.00;0.00;0.62;0.00;0.00;0.62;1.90;1.27;;;19.30;26.10;;;;;;2248892;61;20443;-52
2021/12/21 08:42:25;0.00;0.00;0.62;0.00;0.00;0.62;1.90;1.27;;;19.30;26.10;;;;;;2250232;61;20821;-56
2021/12/21 08:45:12;0.00;0.00;0.62;0.00;0.00;0.62;1.97;1.50;;;19.30;26.10;;;;;;2250167;61;20405;-57
2021/12/21 08:47:59;0.00;0.00;0.62;0.00;0.00;0.62;1.83;1.40;;;19.30;26.10;;;;;;2248752;61;20481;-54
2021/12/21 08:50:44;0.00;0.00;0.62;0.00;0.00;0.62;1.83;1.40;;;19.30;26.10;;;;;;2250358;61;20617;-58
2021/12/21 08:53:29;0.00;0.00;0.62;0.00;0.00;0.62;1.93;1.37;;;19.30;26.10;;;;;;2249666;61;20356;-57
2021/12/21 08:56:13;0.00;0.00;0.62;0.00;0.00;0.62;1.83;1.10;;;19.30;26.10;;;;;;2249839;61;20409;-57
2021/12/21 08:58:58;0.00;0.00;0.62;0.00;0.00;0.62;1.90;1.17;;;19.30;26.10;;;;;;2250265;61;20364;-57
2021/12/21 09:01:45;0.00;0.00;0.62;0.00;0.00;0.62;1.60;1.10;;;19.30;26.10;;;;;;2248794;61;20711;-59
2021/12/21 09:04:30;0.00;0.00;0.62;0.00;0.00;0.62;2.10;1.50;;;19.30;26.10;;;;;;2250284;61;20389;-56
2021/12/21 09:07:14;0.00;0.00;0.62;0.00;0.00;0.62;1.70;1.37;;;19.30;26.10;;;;;;2250259;61;20505;-53
2021/12/21 09:09:59;0.00;0.00;0.62;0.00;0.00;0.62;1.67;1.20;;;19.30;26.10;;;;;;2248687;61;20356;-58
2021/12/21 09:12:45;0.00;0.00;0.62;0.00;0.00;0.62;1.90;1.37;;;19.30;26.10;;;;;;2250252;61;20368;-57
2021/12/21 09:15:30;0.00;0.00;0.62;0.00;0.00;0.62;1.40;1.10;;;19.30;26.10;;;;;;2249571;61;20685;-57
2021/12/21 09:18:16;0.00;0.00;0.62;0.00;0.00;0.62;1.80;1.23;;;19.30;26.10;;;;;;2249718;61;20411;-58
2021/12/21 09:21:01;0.00;0.00;0.62;0.00;0.00;0.62;1.60;1.03;;;19.30;26.10;;;;;;2250197;61;20376;-56
2021/12/21 09:23:45;0.00;0.00;0.62;0.00;0.00;0.62;1.90;1.13;;;19.30;26.10;;;;;;2248782;61;20872;-55
2021/12/21 09:26:30;0.00;0.00;0.62;0.00;0.00;0.62;1.80;1.30;;;19.30;26.10;;;;;;2250139;61;20417;-58
2021/12/21 09:29:14;0.00;0.00;0.62;0.00;0.00;0.62;1.70;1.20;;;19.30;26.10;;;;;;2250090;61;20428;-55
2021/12/21 09:31:59;0.00;0.00;0.62;0.00;0.00;0.62;1.80;1.23;;;19.30;26.10;;;;;;2248681;61;20404;-55
2021/12/21 09:34:46;0.00;0.00;0.62;0.00;0.00;0.62;1.90;1.30;;;19.30;26.10;;;;;;2250130;61;20364;-57
2021/12/21 09:37:32;0.00;0.00;0.62;0.00;0.00;0.62;2.10;1.40;;;19.30;26.10;;;;;;2249571;61;20364;-57
2021/12/21 09:40:19;0.00;0.00;0.62;0.00;0.00;0.62;1.70;1.17;;;19.30;26.10;;;;;;2249271;61;20400;-55
2021/12/21 09:43:06;0.00;0.00;0.62;0.00;0.00;0.62;1.53;1.23;;;19.30;26.10;;;;;;2250131;61;20465;-54
2021/12/21 09:45:50;0.00;0.00;0.62;0.00;0.00;0.62;1.60;1.40;;;19.30;26.10;;;;;;2248945;61;20392;-60
2021/12/21 09:48:35;0.00;0.00;0.62;0.00;0.00;0.62;1.87;1.67;;;19.30;26.10;;;;;;2250206;61;20360;-57
2021/12/21 09:51:21;0.00;0.00;0.62;0.00;0.00;0.62;2.53;1.50;;;19.40;26.20;;;;;;2250182;61;20368;-60
2021/12/21 09:54:08;0.00;0.00;0.62;0.00;0.00;0.62;1.77;1.30;;;19.40;26.20;;;;;;2248678;61;20582;-60
2021/12/21 09:56:53;0.00;0.00;0.62;0.00;0.00;0.62;1.70;1.30;;;19.40;26.20;;;;;;2249999;61;20423;-56
2021/12/21 09:59:37;0.00;0.00;0.62;0.00;0.00;0.62;1.77;1.10;;;19.30;26.10;;;;;;2252019;61;20360;-58
2021/12/21 10:02:26;0.00;0.00;0.62;0.00;0.00;0.62;1.60;1.10;;;19.40;26.20;;;;;;2249238;61;20364;-60
2021/12/21 10:05:19;0.00;0.00;0.62;0.00;0.00;0.62;1.93;1.20;;;19.40;26.20;;;;;;2249919;61;20433;-61
2021/12/21 10:08:09;0.00;0.00;0.62;0.00;0.00;0.62;1.57;1.00;;;19.30;26.10;;;;;;2251118;61;20629;-58
2021/12/21 10:10:54;0.00;0.00;0.62;0.00;0.00;0.62;1.60;1.20;;;19.40;26.20;;;;;;2249934;61;20349;-55
2021/12/21 10:13:38;0.00;0.00;0.62;0.00;0.00;0.62;1.80;1.30;;;19.40;26.20;;;;;;2249951;61;20374;-57
2021/12/21 10:16:23;0.00;0.00;0.62;0.00;0.00;0.62;2.07;1.27;;;19.40;26.20;;;;;;2248510;61;20388;-56
2021/12/21 10:19:07;0.00;0.00;0.62;0.00;0.00;0.62;1.57;1.10;;;19.40;26.70;;;;;;2252156;61;20432;-54
2021/12/21 10:21:52;0.00;0.00;0.62;0.00;0.00;0.62;1.87;1.30;;;19.40;26.20;;;;;;2249612;61;20448;-51
2021/12/21 10:24:47;0.00;0.00;0.62;0.00;0.00;0.62;1.93;1.20;;;19.40;26.20;;;;;;2249003;61;20610;-54
2021/12/21 10:27:31;0.00;0.00;0.62;0.00;0.00;0.62;1.90;1.13;;;19.40;26.20;;;;;;2249825;61;20353;-61
2021/12/21 10:30:16;0.00;0.00;0.62;0.00;0.00;0.62;1.60;1.10;;;19.40;26.20;;;;;;2248824;61;20372;-53
2021/12/21 10:33:01;0.00;0.00;0.62;0.00;0.00;0.62;2.17;1.57;;;19.40;26.20;;;;;;2249871;61;20716;-57
2021/12/21 10:35:46;0.00;0.00;0.62;0.00;0.00;0.62;2.00;1.37;;;19.40;26.20;;;;;;2249692;61;20744;-59
2021/12/21 10:38:33;0.00;0.00;0.62;0.00;0.00;0.62;1.80;1.30;;;19.40;26.20;;;;;;2248668;61;20360;-58
2021/12/21 10:41:26;0.00;0.00;0.62;0.00;0.00;0.62;1.93;1.40;;;19.50;26.30;;;;;;2249923;61;20381;-58
2021/12/21 10:44:13;0.00;0.00;0.62;0.00;0.00;0.62;1.77;1.13;;;19.40;26.20;;;;;;2249527;61;20377;-54
2021/12/21 10:46:57;0.00;0.00;0.62;0.00;0.00;0.62;1.90;1.20;;;19.50;26.30;;;;;;2248842;61;20380;-57
2021/12/21 10:49:42;0.00;0.00;0.62;0.00;0.00;0.62;1.90;1.10;;;19.50;26.80;;;;;;2252190;61;20385;-61
2021/12/21 10:52:27;0.00;0.00;0.62;0.00;0.00;0.62;2.20;1.40;;;19.50;26.30;;;;;;2248673;61;20411;-54
2021/12/21 10:55:12;0.00;0.00;0.62;0.00;0.00;0.62;1.60;1.10;;;19.50;26.30;;;;;;2249720;61;20387;-59
2021/12/21 10:58:06;0.00;0.00;0.62;0.00;0.00;0.62;1.90;1.50;;;19.50;26.30;;;;;;2249859;61;20408;-58
2021/12/21 11:00:56;0.00;0.00;0.62;0.00;0.00;0.62;2.37;1.50;;;19.50;26.20;;;;;;2248461;61;20570;-58
2021/12/21 11:03:51;0.00;0.00;0.62;0.00;0.00;0.62;1.70;1.13;;;19.50;26.20;;;;;;2249867;61;20404;-54
2021/12/21 11:06:37;0.00;0.00;0.62;0.00;0.00;0.62;2.20;1.50;;;19.50;26.20;;;;;;2249404;61;20755;-56
2021/12/21 11:09:28;0.00;0.00;0.62;0.00;0.00;0.62;2.07;1.67;;;19.50;26.20;;;;;;2249656;61;20367;-58
2021/12/21 11:12:12;0.00;0.00;0.62;0.00;0.00;0.62;2.43;1.60;;;19.50;26.20;;;;;;2249772;61;20357;-56
2021/12/21 11:15:00;0.00;0.00;0.62;0.00;0.00;0.62;2.53;1.00;;;19.50;26.20;;;;;;2248368;61;20643;-61
2021/12/21 11:17:46;0.00;0.00;0.62;0.00;0.00;0.62;1.83;1.20;;;19.50;26.20;;;;;;2252179;61;20586;-56
2021/12/21 11:20:32;0.00;0.00;0.62;0.00;0.00;0.62;2.13;1.60;;;19.50;26.20;;;;;;2249772;61;20353;-62
2021/12/21 11:23:22;0.00;0.00;0.62;0.00;0.00;0.62;1.87;1.40;;;19.50;26.10;;;;;;2248499;61;20381;-59
2021/12/21 11:26:09;0.00;0.00;0.62;0.00;0.00;0.62;1.93;1.20;;;19.60;26.20;;;;;;2249611;61;20381;-61
2021/12/21 11:28:55;0.00;0.00;0.62;0.00;0.00;0.62;2.50;1.50;;;19.60;26.20;;;;;;2249555;61;20482;-58
2021/12/21 11:31:44;0.00;0.00;0.62;0.00;0.00;0.62;2.00;1.67;;;19.60;26.20;;;;;;2249603;61;20360;-55
2021/12/21 11:34:33;0.00;0.00;0.62;0.00;0.00;0.62;1.90;1.40;;;19.60;26.20;;;;;;2249764;61;20587;-57
2021/12/21 11:37:20;0.00;0.00;0.62;0.00;0.00;0.62;2.23;1.50;;;19.60;26.10;;;;;;2248454;61;20432;-56
2021/12/21 11:40:10;0.00;0.00;0.62;0.00;0.00;0.62;1.80;1.33;;;19.60;26.10;;;;;;2249663;61;20401;-55
2021/12/21 11:43:08;0.00;0.00;0.62;0.00;0.00;0.62;2.90;1.87;;;19.60;26.10;;;;;;2250122;61;20360;-58
2021/12/21 11:45:57;0.00;0.00;0.62;0.00;0.00;0.62;2.07;1.37;;;19.60;26.10;;;;;;2249417;61;20376;-56
2021/12/21 11:48:52;0.00;0.00;0.62;0.00;0.00;0.62;2.03;1.20;;;19.60;26.10;;;;;;2252590;61;20432;-57
2021/12/21 11:51:37;0.00;0.00;0.62;0.00;0.00;0.62;2.07;1.47;;;19.60;26.10;;;;;;2248951;61;20384;-58
2021/12/21 11:54:22;0.00;0.00;0.62;0.00;0.00;0.62;3.27;1.80;;;19.60;26.10;;;;;;2249857;61;20412;-54
2021/12/21 11:57:07;0.00;0.00;0.62;0.00;0.00;0.62;2.20;1.37;;;19.60;26.10;;;;;;2250328;61;20379;-56